Flight Track Log - Related Links

Times and Time Zones

All times are in EST time to prevent confusion due to time zone crossing. See the UAL1116 flight status page for this flight to view local times or setup timezone preferences in your user account.


Time Position Orientation Groundspeed Altitude Reporting Facility
EST Latitude Longitude Course Direction KTS MPH feet Rate Location/Type
Sun 05:24:00 PM 19.6080 -99.0567 351° North  Level FlightAware Approximate
Sun 05:25:00 PM 19.7266 -99.0772 351° North  Level FlightAware Approximate
Sun 05:26:00 PM 19.8452 -99.0977 351° North  Level FlightAware Approximate
Sun 05:27:00 PM 19.9638 -99.1182 351° North  Level FlightAware Approximate
Sun 05:28:00 PM 20.0858 -99.1394 351° North  Level FlightAware Approximate
Sun 05:29:00 PM 20.2079 -99.1606 351° North  Level FlightAware Approximate
Sun 05:30:00 PM 20.3300 -99.1819 351° North  Level FlightAware Approximate
Sun 05:31:00 PM 20.4520 -99.2031 351° North  Level FlightAware Approximate
Sun 05:32:00 PM 20.5741 -99.2245 351° North  Level FlightAware Approximate
Sun 05:33:00 PM 20.6961 -99.2458 351° North  Level FlightAware Approximate
Sun 05:34:00 PM 20.8182 -99.2672 351° North  Level FlightAware Approximate
Sun 05:35:00 PM 20.9403 -99.2886 351° North  Level FlightAware Approximate
Sun 05:36:00 PM 21.0623 -99.3101 351° North  Level FlightAware Approximate
Sun 05:37:00 PM 21.1843 -99.3316 351° North  Level FlightAware Approximate
Sun 05:38:00 PM 21.3064 -99.3531 351° North  Level FlightAware Approximate
Sun 05:39:00 PM 21.3930 -99.4479 351° North  Level Estimated
Sun 05:40:00 PM 21.5166 -99.4518 358° North  Level FlightAware Approximate
Sun 05:41:00 PM 21.6402 -99.4557 358° North  Level FlightAware Approximate
Sun 05:42:00 PM 21.7638 -99.4597 358° North  Level FlightAware Approximate
Sun 05:43:00 PM 21.8875 -99.4636 358° North  Level FlightAware Approximate
Sun 05:44:00 PM 21.9729 -99.5601 351° North  Level Estimated
Sun 05:45:00 PM 22.0964 -99.5661 357° North  Level FlightAware Approximate
Sun 05:46:00 PM 22.2199 -99.5722 357° North  Level FlightAware Approximate
Sun 05:47:00 PM 22.3435 -99.5783 357° North  Level FlightAware Approximate
Sun 05:48:00 PM 22.4671 -99.5844 357° North  Level FlightAware Approximate
Sun 05:49:00 PM 22.5906 -99.5905 357° North  Level FlightAware Approximate
Sun 05:50:00 PM 22.6744 -99.6890 351° North  Level Estimated
Sun 05:51:00 PM 22.7981 -99.6909 359° North  Level FlightAware Approximate
Sun 05:52:00 PM 22.9218 -99.6928 359° North  Level FlightAware Approximate
Sun 05:53:00 PM 23.0455 -99.6947 359° North  Level FlightAware Approximate
Sun 05:54:00 PM 23.1691 -99.6967 359° North  Level FlightAware Approximate
Sun 05:55:00 PM 23.2516 -99.7969 351° North  Level Estimated
Sun 05:56:00 PM 23.3747 -99.8106 354° North  Level FlightAware Approximate
Sun 05:57:00 PM 23.4977 -99.8242 354° North  Level FlightAware Approximate
Sun 05:58:00 PM 23.6207 -99.8380 354° North  Level FlightAware Approximate
Sun 05:59:00 PM 23.7438 -99.8517 354° North  Level FlightAware Approximate
Sun 06:00:00 PM 23.8668 -99.8654 354° North  Level FlightAware Approximate
Sun 06:01:00 PM 23.9899 -99.8792 354° North  Level FlightAware Approximate
Sun 06:02:00 PM 24.1129 -99.8930 354° North  Level FlightAware Approximate
Sun 06:03:00 PM 24.2359 -99.9068 354° North  Level FlightAware Approximate
Sun 06:04:00 PM 24.3590 -99.9207 354° North  Level FlightAware Approximate
Sun 06:05:00 PM 24.4820 -99.9346 354° North  Level FlightAware Approximate
Sun 06:06:00 PM 24.6050 -99.9485 354° North  Level FlightAware Approximate
Sun 06:07:00 PM 24.7281 -99.9624 354° North  Level FlightAware Approximate
Sun 06:08:00 PM 24.8511 -99.9764 354° North  Level FlightAware Approximate
Sun 06:09:00 PM 24.9741 -99.9904 354° North  Level FlightAware Approximate
Sun 06:10:00 PM 25.0971 -100.0044 354° North  Level FlightAware Approximate
Sun 06:11:00 PM 25.1745 -100.1110 351° North  Level Estimated
Sun 06:12:00 PM 25.2975 -100.0958 North  Level FlightAware Approximate
Sun 06:13:00 PM 25.3744 -100.2030 299° West  Level Estimated
Sun 06:14:00 PM 25.4512 -100.3103 300° West  Level Estimated
Sun 06:15:00 PM 25.5478 -100.3959 321° Northwest  Level FlightAware Approximate
Sun 06:16:00 PM 25.6443 -100.4816 321° Northwest  Level FlightAware Approximate
Sun 06:17:00 PM 25.7207 -100.5895 298° West  Level Estimated
Sun 06:18:00 PM 25.7945 -100.6998 307° West  Level FlightAware Approximate
Sun 06:19:00 PM 25.8486 -100.7808 307° West  Level FlightAware Approximate
Sun 06:20:00 PM 25.9027 -100.8619 307° West  Level FlightAware Approximate
Sun 06:21:00 PM 25.9587 -100.9415 299° West  Level Estimated
Sun 06:22:00 PM 26.0056 -101.0281 301° West  Level FlightAware Approximate
Sun 06:23:00 PM 26.0525 -101.1146 301° West  Level FlightAware Approximate
Sun 06:24:00 PM 26.1084 -101.1944 299° West  Level Estimated
Sun 06:25:00 PM 26.1513 -101.2836 298° West  Level FlightAware Approximate
Sun 06:26:00 PM 26.1940 -101.3729 298° West  Level FlightAware Approximate
Sun 06:27:00 PM 26.2368 -101.4623 298° West  Level FlightAware Approximate
Sun 06:28:00 PM 26.2795 -101.5517 298° West  Level FlightAware Approximate
Sun 06:29:00 PM 26.3221 -101.6412 298° West  Level FlightAware Approximate
Sun 06:30:00 PM 26.3647 -101.7308 298° West  Level FlightAware Approximate
Sun 06:31:00 PM 26.4072 -101.8204 298° West  Level FlightAware Approximate
Sun 06:32:00 PM 26.4630 -101.9004 299° West  Level Estimated
Sun 06:33:00 PM 26.5050 -101.9904 298° West  Level FlightAware Approximate
Sun 06:34:00 PM 26.5469 -102.0805 298° West  Level FlightAware Approximate
Sun 06:35:00 PM 26.5888 -102.1707 297° West  Level FlightAware Approximate
Sun 06:36:00 PM 26.6306 -102.2609 297° West  Level FlightAware Approximate
Sun 06:37:00 PM 26.6724 -102.3512 297° West  Level FlightAware Approximate
Sun 06:38:00 PM 26.7282 -102.4314 298° West  Level Estimated
Sun 06:39:00 PM 26.7700 -102.5218 297° West  Level FlightAware Approximate
Sun 06:40:00 PM 26.8117 -102.6122 297° West  Level FlightAware Approximate
Sun 06:41:00 PM 26.8533 -102.7027 297° West  Level FlightAware Approximate
Sun 06:42:00 PM 26.8949 -102.7932 297° West  Level FlightAware Approximate
Sun 06:43:00 PM 26.9364 -102.8838 297° West  Level FlightAware Approximate
Sun 06:44:00 PM 26.9779 -102.9745 297° West  Level FlightAware Approximate
Sun 06:45:00 PM 27.0193 -103.0653 297° West  Level FlightAware Approximate
Sun 06:46:00 PM 27.0606 -103.1561 297° West  Level FlightAware Approximate
Sun 06:47:00 PM 27.1019 -103.2470 297° West  Level FlightAware Approximate
Sun 06:48:00 PM 27.1432 -103.3380 297° West  Level FlightAware Approximate
Sun 06:49:00 PM 27.1844 -103.4290 297° West  Level FlightAware Approximate
Sun 06:50:00 PM 27.2255 -103.5201 297° West  Level FlightAware Approximate
Sun 06:51:00 PM 27.2666 -103.6112 297° West  Level FlightAware Approximate
Sun 06:52:00 PM 27.3076 -103.7025 297° West  Level FlightAware Approximate
Sun 06:53:00 PM 27.3485 -103.7937 297° West  Level FlightAware Approximate
Sun 06:54:00 PM 27.3894 -103.8851 297° West  Level FlightAware Approximate
Sun 06:55:00 PM 27.4302 -103.9765 297° West  Level FlightAware Approximate
Sun 06:56:00 PM 27.4861 -104.0572 299° West  Level Estimated
Sun 06:57:00 PM 27.5252 -104.1497 296° West  Level FlightAware Approximate
Sun 06:58:00 PM 27.5643 -104.2422 295° West  Level FlightAware Approximate
Sun 06:59:00 PM 27.6202 -104.3230 297° West  Level Estimated
Sun 07:00:00 PM 27.6581 -104.4162 295° West  Level FlightAware Approximate
Sun 07:01:00 PM 27.6959 -104.5094 295° West  Level FlightAware Approximate
Sun 07:02:00 PM 27.7337 -104.6028 295° West  Level FlightAware Approximate
Sun 07:03:00 PM 27.7714 -104.6962 295° West  Level FlightAware Approximate
Sun 07:04:00 PM 27.8274 -104.7770 297° West  Level Estimated
Sun 07:05:00 PM 27.8684 -104.8688 297° West  Level FlightAware Approximate
Sun 07:06:00 PM 27.9093 -104.9605 297° West  Level FlightAware Approximate
Sun 07:07:00 PM 27.9501 -105.0524 297° West  Level FlightAware Approximate
Sun 07:08:00 PM 27.9909 -105.1443 297° West  Level FlightAware Approximate
Sun 07:09:00 PM 28.0316 -105.2363 297° West  Level FlightAware Approximate
Sun 07:10:00 PM 28.0723 -105.3284 297° West  Level FlightAware Approximate
Sun 07:11:00 PM 28.1129 -105.4205 297° West  Level FlightAware Approximate
Sun 07:12:00 PM 28.1534 -105.5127 297° West  Level FlightAware Approximate
Sun 07:13:00 PM 28.1938 -105.6050 296° West  Level FlightAware Approximate
Sun 07:14:00 PM 28.2342 -105.6973 296° West  Level FlightAware Approximate
Sun 07:15:00 PM 28.2746 -105.7897 296° West  Level FlightAware Approximate
Sun 07:16:00 PM 28.3149 -105.8822 296° West  Level FlightAware Approximate
Sun 07:17:00 PM 28.3551 -105.9748 296° West  Level FlightAware Approximate
Sun 07:18:00 PM 28.3953 -106.0674 296° West  Level FlightAware Approximate
Sun 07:19:00 PM 28.4353 -106.1601 296° West  Level FlightAware Approximate
Sun 07:20:00 PM 28.4754 -106.2529 296° West  Level FlightAware Approximate
Sun 07:21:00 PM 28.5153 -106.3457 296° West  Level FlightAware Approximate
Sun 07:22:00 PM 28.5552 -106.4386 296° West  Level FlightAware Approximate
Sun 07:23:00 PM 28.5951 -106.5316 296° West  Level FlightAware Approximate
Sun 07:24:00 PM 28.6349 -106.6246 296° West  Level FlightAware Approximate
Sun 07:25:00 PM 28.6746 -106.7177 296° West  Level FlightAware Approximate
Sun 07:26:00 PM 28.7142 -106.8109 296° West  Level FlightAware Approximate
Sun 07:27:00 PM 28.7538 -106.9042 296° West  Level FlightAware Approximate
Sun 07:28:00 PM 28.7933 -106.9975 296° West  Level FlightAware Approximate
Sun 07:29:00 PM 28.8328 -107.0909 296° West  Level FlightAware Approximate
Sun 07:30:00 PM 28.8722 -107.1844 296° West  Level FlightAware Approximate
Sun 07:31:00 PM 28.9115 -107.2779 296° West  Level FlightAware Approximate
Sun 07:32:00 PM 28.9508 -107.3715 296° West  Level FlightAware Approximate
Sun 07:33:00 PM 28.9900 -107.4652 296° West  Level FlightAware Approximate
Sun 07:34:00 PM 29.0291 -107.5590 296° West  Level FlightAware Approximate
Sun 07:35:00 PM 29.0682 -107.6528 295° West  Level FlightAware Approximate
Sun 07:36:00 PM 29.1072 -107.7467 295° West  Level FlightAware Approximate
Sun 07:37:00 PM 29.1461 -107.8407 295° West  Level FlightAware Approximate
Sun 07:38:00 PM 29.1850 -107.9347 295° West  Level FlightAware Approximate
Sun 07:39:00 PM 29.2238 -108.0288 295° West  Level FlightAware Approximate
Sun 07:40:00 PM 29.2625 -108.1230 295° West  Level FlightAware Approximate
Sun 07:41:00 PM 29.3012 -108.2172 295° West  Level FlightAware Approximate
Sun 07:42:00 PM 29.3398 -108.3116 295° West  Level FlightAware Approximate
Sun 07:43:00 PM 29.3969 -108.3926 295° West  Level Estimated
Sun 07:44:00 PM 29.4333 -108.4882 294° West  Level FlightAware Approximate
Sun 07:45:00 PM 29.4696 -108.5839 294° West  Level FlightAware Approximate
Sun 07:46:00 PM 29.5058 -108.6796 294° West  Level FlightAware Approximate
Sun 07:47:00 PM 29.5419 -108.7754 293° West  Level FlightAware Approximate
Sun 07:47:54 PM 30.2762 -112.9775 293° West 441 507 38,000  Level FlightAware ADS-B (VRMM / MLE)
Sun 07:48:00 PM 29.5780 -108.8712 293° West  Level FlightAware Approximate
Sun 07:48:45 PM 30.3360 -113.0774 305° West 441 507 38,000  Level FlightAware ADS-B (VRMM / MLE)
Sun 08:13:46 PM 32.0655 -116.0838 315° West 447 514 38,000  Level FlightAware ADS-B
Sun 08:16:11 PM 32.2291 -116.3809 319° Northwest 452 520 38,000  Level FlightAware ADS-B
Sun 08:16:56 PM 32.2822 -116.4780 303° West 454 522 38,000  Level FlightAware ADS-B
Sun 08:17:29 PM 32.3158 -116.5393 303° West 454 522 38,000  Level FlightAware ADS-B
Sun 08:18:36 PM 32.3942 -116.6829 303° West 454 522 38,000  Level FlightAware ADS-B
Sun 08:19:13 PM 32.4369 -116.7613 303° West 453 521 38,000  Level FlightAware ADS-B
Sun 08:19:55 PM 32.4825 -116.8456 303° West 453 521 38,000  Level FlightAware ADS-B
Sun 08:20:12 PM 32.5004 -116.8787 303° West 453 521 38,000  Level FlightAware ADS-B
Sun 08:22:58 PM 32.7202 -117.2011 311° West 451 519 38,000  Level FlightAware ADS-B
Sun 08:23:00 PM 32.7486 -117.1248 311° West  Level Estimated
Sun 08:23:35 PM 32.7727 -117.2741 311° West 451 519 38,000  Level FlightAware ADS-B
Sun 08:24:17 PM 32.8269 -117.3494 311° West 451 519 38,000  Level FlightAware ADS-B
Sun 08:24:59 PM 32.8851 -117.4304 311° West 451 519 38,000  Level FlightAware ADS-B
Sun 08:25:36 PM 32.9348 -117.4999 310° West 451 519 38,000  Level FlightAware ADS-B
Sun 08:26:14 PM 32.9839 -117.5688 310° West 450 518 38,000  Level FlightAware ADS-B
Sun 08:26:53 PM 33.0401 -117.6475 310° West 450 518 38,000  Level FlightAware ADS-B
Sun 08:27:25 PM 33.0727 -117.6932 310° West 450 518 38,000  Level FlightAware ADS-B
Sun 08:28:22 PM 33.1601 -117.8163 310° West 450 518 38,000  Level FlightAware ADS-B
Sun 08:28:57 PM 33.2066 -117.8820 310° West 450 518 38,000  Level FlightAware ADS-B
Sun 08:29:46 PM 33.2609 -117.9587 310° West 449 517 38,000  Level FlightAware ADS-B
Sun 08:30:26 PM 33.3251 -118.0496 310° West 449 517 38,000  Level FlightAware ADS-B
Sun 08:31:09 PM 33.3831 -118.1321 310° West 449 517 38,000  Level FlightAware ADS-B
Sun 08:31:44 PM 33.4305 -118.1997 310° West 448 516 38,000  Level FlightAware ADS-B
Sun 08:32:15 PM 33.4692 -118.2548 310° West 447 514 38,000  Level FlightAware ADS-B
Sun 08:32:49 PM 33.5159 -118.3215 310° West 447 514 38,000  Level FlightAware ADS-B
Sun 08:33:19 PM 33.5556 -118.3784 310° West 447 514 38,000  Level FlightAware ADS-B
Sun 08:33:56 PM 33.6018 -118.4446 310° West 447 514 38,000  Level FlightAware ADS-B
Sun 08:34:35 PM 33.6549 -118.5208 310° West 447 514 38,000  Level FlightAware ADS-B
Sun 08:35:17 PM 33.7065 -118.5950 310° West 447 514 38,000  Level FlightAware ADS-B
Sun 08:35:55 PM 33.7606 -118.6729 310° West 447 514 38,000  Level FlightAware ADS-B
Sun 08:36:28 PM 33.7710 -118.6878 310° West 448 516 38,000  Level FlightAware ADS-B
Sun 08:37:04 PM 33.8522 -118.8055 310° West 448 516 38,000  Level FlightAware ADS-B
Sun 08:37:56 PM 33.9201 -118.9041 310° West 449 517 38,000  Level FlightAware ADS-B
Sun 08:38:48 PM 33.9900 -119.0056 310° West 449 517 38,000  Level FlightAware ADS-B
Sun 08:39:33 PM 34.0502 -119.0934 310° West 449 517 38,000  Level FlightAware ADS-B
Sun 08:40:06 PM 34.0926 -119.1555 310° West 449 517 38,000  Level FlightAware ADS-B
Sun 08:40:54 PM 34.1538 -119.2452 310° West 447 514 38,000  Level FlightAware ADS-B
Sun 08:41:35 PM 34.2106 -119.3282 310° West 446 513 38,000  Level FlightAware ADS-B
Sun 08:42:14 PM 34.2609 -119.4027 309° West 444 511 38,000  Level FlightAware ADS-B
Sun 08:43:00 PM 34.3208 -119.4911 309° West 443 510 38,000  Level FlightAware ADS-B
Sun 08:43:46 PM 34.3794 -119.5776 309° West 441 507 38,000  Level FlightAware ADS-B
Sun 08:44:20 PM 34.4211 -119.6393 309° West 441 507 38,000  Level FlightAware ADS-B
Sun 08:45:10 PM 34.4886 -119.7398 309° West 439 505 38,000  Level FlightAware ADS-B
Sun 08:45:50 PM 34.5444 -119.8090 314° West 439 505 38,000  Level FlightAware ADS-B
Sun 08:46:49 PM 34.6349 -119.9076 318° Northwest 438 504 38,000  Level FlightAware ADS-B
Sun 08:47:49 PM 34.7236 -120.0047 318° Northwest 436 502 38,000  Level FlightAware ADS-B
Sun 08:48:25 PM 34.7726 -120.0585 318° Northwest 441 507 38,000  Level FlightAware ADS-B
Sun 08:48:55 PM 34.8204 -120.1109 318° Northwest 446 513 38,000  Level FlightAware ADS-B
Sun 08:49:28 PM 34.8693 -120.1647 318° Northwest 447 514 38,000  Level FlightAware ADS-B
Sun 08:49:58 PM 34.9199 -120.2204 318° Northwest 447 514 38,000  Level FlightAware ADS-B
Sun 08:50:29 PM 34.9685 -120.2739 318° Northwest 448 516 38,000  Level FlightAware ADS-B
Sun 08:51:01 PM 35.0094 -120.3191 318° Northwest 449 517 38,000  Level FlightAware ADS-B
Sun 08:51:31 PM 35.0634 -120.3788 318° Northwest 450 518 38,000  Level FlightAware ADS-B
Sun 08:52:01 PM 35.1077 -120.4278 318° Northwest 450 518 38,000  Level FlightAware ADS-B
Sun 08:52:43 PM 35.1751 -120.5029 318° Northwest 450 518 38,000  Level FlightAware ADS-B
Sun 08:53:33 PM 35.2511 -120.5874 318° Northwest 443 510 38,000  Level FlightAware ADS-B
Sun 08:54:04 PM 35.2973 -120.6389 318° Northwest 441 507 38,000  Level FlightAware ADS-B
Sun 08:57:35 PM 35.6396 -120.9590 323° Northwest 439 505 38,000 -115 Level FlightAware ADS-B
Sun 09:00:09 PM 35.8914 -121.1850 324° Northwest 445 512 37,300 -391 Descending FlightAware ADS-B
Sun 09:00:39 PM 35.9420 -121.2310 324° Northwest 451 519 36,800 -2,250 Descending FlightAware ADS-B
Sun 09:02:01 PM 36.0800 -121.3560 324° Northwest 457 526 33,100 -2,607 Descending FlightAware ADS-B
Sun 09:02:41 PM 36.1482 -121.4170 324° Northwest 451 519 31,500 -2,155 Descending FlightAware ADS-B
Sun 09:03:44 PM 36.2364 -121.4956 324° Northwest 445 512 29,400 -2,129 Descending Oakland Center
Sun 09:04:45 PM 36.3311 -121.5828 323° Northwest 427 491 27,100 -2,137 Descending Oakland Center
Sun 09:10:17 PM 36.8332 -121.9880 323° Northwest 349 402 15,400 -2,105 Descending FlightAware ADS-B
Sun 09:10:47 PM 36.8805 -122.0000 349° North 344 396 14,400 -1,967 Descending FlightAware ADS-B
Sun 09:11:18 PM 36.9279 -122.0120 349° North 340 391 13,400 -1,974 Descending FlightAware ADS-B
Sun 09:12:03 PM 36.9966 -122.0300 348° North 337 388 11,900 -1,840 Descending FlightAware ADS-B
Sun 09:12:33 PM 37.0426 -122.0430 347° North 328 377 11,100 -1,574 Descending FlightAware ADS-B
Sun 09:13:04 PM 37.0879 -122.0540 349° North 322 371 10,300 -1,048 Descending FlightAware ADS-B
Sun 09:13:36 PM 37.1322 -122.0660 348° North 297 342 10,000 -500 Descending FlightAware ADS-B
Sun 09:13:52 PM 37.1540 -122.0720 348° North 290 334 9,900 -581 Descending FlightAware ADS-B
Sun 09:14:07 PM 37.1741 -122.0770 349° North 290 334 9,700 -774 Descending FlightAware ADS-B
Sun 09:14:23 PM 37.1941 -122.0820 349° North 287 330 9,500 -1,355 Descending FlightAware ADS-B
Sun 09:14:38 PM 37.2139 -122.0880 346° North 290 334 9,000 -1,875 Descending FlightAware ADS-B
Sun 09:14:55 PM 37.2360 -122.0930 350° North 292 336 8,500 -1,636 Descending FlightAware ADS-B
Sun 09:15:11 PM 37.2572 -122.0990 347° North 293 337 8,100 -1,355 Descending FlightAware ADS-B
Sun 09:15:26 PM 37.2775 -122.1040 349° North 290 334 7,800 -1,200 Descending FlightAware ADS-B
Sun 09:15:41 PM 37.2973 -122.1100 346° North 285 328 7,500 -968 Descending FlightAware ADS-B
Sun 09:15:57 PM 37.3173 -122.1150 349° North 277 319 7,300 -1,000 Descending FlightAware ADS-B
Sun 09:16:11 PM 37.3344 -122.1200 347° North 275 316 7,000 -1,250 Descending FlightAware ADS-B
Sun 09:16:21 PM 37.3475 -122.1230 350° North 273 314 6,800 -1,385 Descending FlightAware ADS-B
Sun 09:16:37 PM 37.3665 -122.1280 348° North 272 313 6,400 -1,400 Descending FlightAware ADS-B
Sun 09:16:51 PM 37.3835 -122.1320 349° North 273 314 6,100 -1,440 Descending FlightAware ADS-B
Sun 09:17:02 PM 37.3977 -122.1360 347° North 274 315 5,800 -1,385 Descending FlightAware ADS-B
Sun 09:17:17 PM 37.4164 -122.1410 348° North 270 311 5,500 -1,034 Descending FlightAware ADS-B
Sun 09:17:31 PM 37.4334 -122.1460 347° North 262 302 5,300 -800 Descending FlightAware ADS-B
Sun 09:17:47 PM 37.4514 -122.1500 350° North 254 292 5,100 -774 Descending FlightAware ADS-B
Sun 09:18:02 PM 37.4684 -122.1550 347° North 244 281 4,900 -774 Descending FlightAware ADS-B
Sun 09:18:18 PM 37.4851 -122.1600 347° North 232 267 4,700 -1,161 Descending FlightAware ADS-B
Sun 09:18:33 PM 37.5003 -122.1650 345° North 224 258 4,300 -1,778 Descending FlightAware ADS-B
Sun 09:18:45 PM 37.5128 -122.1690 346° North 223 257 3,900 -2,118 Descending FlightAware ADS-B
Sun 09:18:50 PM 37.5172 -122.1710 340° North 224 258 3,700 -2,400 Descending FlightAware ADS-B
Sun 09:18:55 PM 37.5220 -122.1740 334° Northwest 225 259 3,500 -2,667 Descending FlightAware ADS-B
Sun 09:18:59 PM 37.5252 -122.1770 323° Northwest 225 259 3,300 -2,571 Descending FlightAware ADS-B
Sun 09:19:02 PM 37.5281 -122.1790 331° Northwest 225 259 3,200 -1,714 Descending FlightAware ADS-B
Sun 09:19:06 PM 37.5317 -122.1820 327° Northwest 223 257 3,100 -1,000 Descending FlightAware ADS-B
Sun 09:19:14 PM 37.5375 -122.1880 321° Northwest 219 252 3,000 -1,385 Descending FlightAware ADS-B
Sun 09:19:19 PM 37.5413 -122.1930 314° West 215 247 2,800 -1,500 Descending FlightAware ADS-B
Sun 09:19:22 PM 37.5434 -122.1960 311° West 213 245 2,800 -750 Level FlightAware ADS-B
Sun 09:19:27 PM 37.5461 -122.2010 304° West 208 239 2,700 -1,500 Descending FlightAware ADS-B
Sun 09:19:30 PM 37.5477 -122.2040 304° West 206 237 2,600 -1,714 Descending FlightAware ADS-B
Sun 09:19:34 PM 37.5491 -122.2080 294° West 204 235 2,500 -1,091 Descending FlightAware ADS-B
Sun 09:19:41 PM 37.5524 -122.2160 297° West 202 232 2,400 -1,263 Descending FlightAware ADS-B
Sun 09:19:53 PM 37.5568 -122.2280 295° West 198 228 2,100 -1,333 Descending FlightAware ADS-B
Sun 09:20:08 PM 37.5632 -122.2440 297° West 191 220 1,800 -889 Descending FlightAware ADS-B
Sun 09:20:20 PM 37.5680 -122.2560 297° West 189 217 1,700 -857 Descending FlightAware ADS-B
Sun 09:20:36 PM 37.5744 -122.2710 298° West 187 215 1,400 -968 Descending FlightAware ADS-B
Sun 09:20:51 PM 37.5806 -122.2850 299° West 177 204 1,200 -750 Descending FlightAware ADS-B
Sun 09:21:00 PM 37.5839 -122.2930 298° West 168 193 1,100 -889 Descending FlightAware ADS-B
Sun 09:21:18 PM 37.5899 -122.3070 298° West 156 180 800 -1,029 Descending FlightAware ADS-B
Sun 09:21:35 PM 37.5958 -122.3210 298° West 156 180 500 -938 Descending FlightAware ADS-B
Sun 09:21:50 PM 37.6009 -122.3330 298° West 157 181 300 -923 Descending FlightAware ADS-B
Sun 09:22:01 PM 37.6048 -122.3420 299° West 156 180 100 -1,091 Descending FlightAware ADS-B
Sun 09:29:00 PM 37.6167 -122.3667 322° Northwest  Level FlightAware Approximate
Sun 09:30:00 PM 37.6191 -122.3752 322° Northwest  Level Estimated
Sun 09:31:00 PM 37.6167 -122.3667 322° Northwest  Level FlightAware Approximate

Login

Don't have an account? Register now (free) for customized features, flight alerts, and more!